sensor_id;sensor_type;location;lat;lon;timestamp;P1;durP1;ratioP1;P2;durP2;ratioP2
8964;SDS011;4517;49.020;12.066;2024-03-25T00:01:15;30.90;;;28.60;;
8964;SDS011;4517;49.020;12.066;2024-03-25T00:03:41;31.90;;;29.53;;
8964;SDS011;4517;49.020;12.066;2024-03-25T00:06:07;29.90;;;27.80;;
8964;SDS011;4517;49.020;12.066;2024-03-25T00:08:33;30.23;;;27.83;;
8964;SDS011;4517;49.020;12.066;2024-03-25T00:10:59;32.27;;;29.60;;
8964;SDS011;4517;49.020;12.066;2024-03-25T00:13:25;30.07;;;27.67;;
8964;SDS011;4517;49.020;12.066;2024-03-25T00:15:51;30.80;;;28.47;;
8964;SDS011;4517;49.020;12.066;2024-03-25T00:18:17;30.00;;;27.80;;
8964;SDS011;4517;49.020;12.066;2024-03-25T00:20:43;29.30;;;27.10;;
8964;SDS011;4517;49.020;12.066;2024-03-25T00:23:09;31.07;;;28.23;;
8964;SDS011;4517;49.020;12.066;2024-03-25T00:25:36;28.40;;;26.57;;
8964;SDS011;4517;49.020;12.066;2024-03-25T00:28:02;29.10;;;26.80;;
8964;SDS011;4517;49.020;12.066;2024-03-25T00:30:29;28.20;;;25.90;;
8964;SDS011;4517;49.020;12.066;2024-03-25T00:32:55;28.33;;;26.43;;
8964;SDS011;4517;49.020;12.066;2024-03-25T00:35:21;29.60;;;27.60;;
8964;SDS011;4517;49.020;12.066;2024-03-25T00:37:48;27.33;;;25.40;;
8964;SDS011;4517;49.020;12.066;2024-03-25T00:40:14;28.10;;;26.10;;
8964;SDS011;4517;49.020;12.066;2024-03-25T00:42:40;28.10;;;26.10;;
8964;SDS011;4517;49.020;12.066;2024-03-25T00:45:06;27.33;;;25.43;;
8964;SDS011;4517;49.020;12.066;2024-03-25T00:47:32;27.57;;;25.57;;
8964;SDS011;4517;49.020;12.066;2024-03-25T00:49:58;25.93;;;24.10;;
8964;SDS011;4517;49.020;12.066;2024-03-25T00:52:24;26.57;;;24.77;;
8964;SDS011;4517;49.020;12.066;2024-03-25T00:54:50;26.47;;;24.67;;
8964;SDS011;4517;49.020;12.066;2024-03-25T00:57:16;25.67;;;24.07;;
8964;SDS011;4517;49.020;12.066;2024-03-25T00:59:43;26.03;;;24.13;;
8964;SDS011;4517;49.020;12.066;2024-03-25T01:02:09;24.47;;;22.67;;
8964;SDS011;4517;49.020;12.066;2024-03-25T01:04:35;26.33;;;24.27;;
8964;SDS011;4517;49.020;12.066;2024-03-25T01:07:01;24.60;;;22.90;;
8964;SDS011;4517;49.020;12.066;2024-03-25T01:09:28;26.57;;;24.87;;
8964;SDS011;4517;49.020;12.066;2024-03-25T01:11:54;23.87;;;22.17;;
8964;SDS011;4517;49.020;12.066;2024-03-25T01:14:20;24.57;;;23.00;;
8964;SDS011;4517;49.020;12.066;2024-03-25T01:16:46;25.40;;;23.60;;
8964;SDS011;4517;49.020;12.066;2024-03-25T01:19:12;24.30;;;22.60;;
8964;SDS011;4517;49.020;12.066;2024-03-25T01:21:38;21.90;;;20.40;;
8964;SDS011;4517;49.020;12.066;2024-03-25T01:24:04;24.60;;;22.13;;
8964;SDS011;4517;49.020;12.066;2024-03-25T01:26:30;22.30;;;20.70;;
8964;SDS011;4517;49.020;12.066;2024-03-25T01:28:56;23.07;;;21.33;;
8964;SDS011;4517;49.020;12.066;2024-03-25T01:31:22;22.40;;;20.90;;
8964;SDS011;4517;49.020;12.066;2024-03-25T01:33:48;22.23;;;20.53;;
8964;SDS011;4517;49.020;12.066;2024-03-25T01:36:14;21.97;;;20.47;;
8964;SDS011;4517;49.020;12.066;2024-03-25T01:38:43;21.20;;;19.80;;
8964;SDS011;4517;49.020;12.066;2024-03-25T01:41:09;21.60;;;19.90;;
8964;SDS011;4517;49.020;12.066;2024-03-25T01:43:36;20.87;;;19.37;;
8964;SDS011;4517;49.020;12.066;2024-03-25T01:46:02;22.73;;;21.03;;
8964;SDS011;4517;49.020;12.066;2024-03-25T01:48:28;19.80;;;18.20;;
8964;SDS011;4517;49.020;12.066;2024-03-25T01:50:54;20.27;;;18.70;;
8964;SDS011;4517;49.020;12.066;2024-03-25T01:53:21;20.50;;;18.90;;
8964;SDS011;4517;49.020;12.066;2024-03-25T01:55:47;19.77;;;18.40;;
8964;SDS011;4517;49.020;12.066;2024-03-25T01:58:14;19.23;;;17.83;;
8964;SDS011;4517;49.020;12.066;2024-03-25T02:00:40;19.10;;;17.70;;
8964;SDS011;4517;49.020;12.066;2024-03-25T02:03:07;20.90;;;19.33;;
8964;SDS011;4517;49.020;12.066;2024-03-25T02:05:34;19.73;;;18.10;;
8964;SDS011;4517;49.020;12.066;2024-03-25T02:08:00;20.20;;;18.80;;
8964;SDS011;4517;49.020;12.066;2024-03-25T02:10:26;19.00;;;17.43;;
8964;SDS011;4517;49.020;12.066;2024-03-25T02:12:53;18.83;;;17.40;;
8964;SDS011;4517;49.020;12.066;2024-03-25T02:15:20;20.37;;;18.87;;
8964;SDS011;4517;49.020;12.066;2024-03-25T02:17:46;20.03;;;18.20;;
8964;SDS011;4517;49.020;12.066;2024-03-25T02:20:11;19.03;;;17.83;;
8964;SDS011;4517;49.020;12.066;2024-03-25T02:22:40;19.73;;;18.13;;
8964;SDS011;4517;49.020;12.066;2024-03-25T02:25:07;19.20;;;17.70;;
8964;SDS011;4517;49.020;12.066;2024-03-25T02:27:33;19.27;;;17.80;;
8964;SDS011;4517;49.020;12.066;2024-03-25T02:30:03;18.63;;;17.53;;
8964;SDS011;4517;49.020;12.066;2024-03-25T02:32:31;18.03;;;16.83;;
8964;SDS011;4517;49.020;12.066;2024-03-25T02:34:57;18.97;;;17.53;;
8964;SDS011;4517;49.020;12.066;2024-03-25T02:37:23;19.37;;;17.80;;
8964;SDS011;4517;49.020;12.066;2024-03-25T02:39:49;18.30;;;17.10;;
8964;SDS011;4517;49.020;12.066;2024-03-25T02:42:15;19.30;;;18.00;;
8964;SDS011;4517;49.020;12.066;2024-03-25T02:44:42;19.70;;;18.50;;
8964;SDS011;4517;49.020;12.066;2024-03-25T02:47:08;20.20;;;18.60;;
8964;SDS011;4517;49.020;12.066;2024-03-25T02:49:34;19.87;;;18.17;;
8964;SDS011;4517;49.020;12.066;2024-03-25T02:52:00;21.03;;;19.53;;
8964;SDS011;4517;49.020;12.066;2024-03-25T02:54:26;20.13;;;18.73;;
8964;SDS011;4517;49.020;12.066;2024-03-25T02:56:52;20.97;;;19.47;;
8964;SDS011;4517;49.020;12.066;2024-03-25T02:59:18;20.87;;;19.37;;
8964;SDS011;4517;49.020;12.066;2024-03-25T03:01:44;19.97;;;18.57;;
8964;SDS011;4517;49.020;12.066;2024-03-25T03:04:10;18.67;;;17.23;;
8964;SDS011;4517;49.020;12.066;2024-03-25T03:06:36;21.20;;;19.20;;
8964;SDS011;4517;49.020;12.066;2024-03-25T03:09:02;19.93;;;18.60;;
8964;SDS011;4517;49.020;12.066;2024-03-25T03:11:28;20.90;;;19.30;;
8964;SDS011;4517;49.020;12.066;2024-03-25T03:13:54;20.10;;;18.60;;
8964;SDS011;4517;49.020;12.066;2024-03-25T03:16:20;20.60;;;18.93;;
8964;SDS011;4517;49.020;12.066;2024-03-25T03:18:46;20.57;;;18.97;;
8964;SDS011;4517;49.020;12.066;2024-03-25T03:21:12;19.23;;;17.70;;
8964;SDS011;4517;49.020;12.066;2024-03-25T03:23:38;18.43;;;17.13;;
8964;SDS011;4517;49.020;12.066;2024-03-25T03:26:04;19.57;;;17.80;;
8964;SDS011;4517;49.020;12.066;2024-03-25T03:28:30;20.03;;;18.10;;
8964;SDS011;4517;49.020;12.066;2024-03-25T03:30:56;25.43;;;18.40;;
8964;SDS011;4517;49.020;12.066;2024-03-25T03:33:22;18.90;;;17.57;;
8964;SDS011;4517;49.020;12.066;2024-03-25T03:35:49;18.57;;;17.10;;
8964;SDS011;4517;49.020;12.066;2024-03-25T03:38:15;20.07;;;18.37;;
8964;SDS011;4517;49.020;12.066;2024-03-25T03:40:41;19.63;;;17.90;;
8964;SDS011;4517;49.020;12.066;2024-03-25T03:43:06;18.47;;;17.07;;
8964;SDS011;4517;49.020;12.066;2024-03-25T03:45:33;19.10;;;17.57;;
8964;SDS011;4517;49.020;12.066;2024-03-25T03:48:02;20.13;;;18.40;;
8964;SDS011;4517;49.020;12.066;2024-03-25T03:50:28;19.13;;;17.53;;
8964;SDS011;4517;49.020;12.066;2024-03-25T03:52:54;18.30;;;17.10;;
8964;SDS011;4517;49.020;12.066;2024-03-25T03:55:20;18.03;;;16.80;;
8964;SDS011;4517;49.020;12.066;2024-03-25T03:57:46;18.33;;;16.93;;
8964;SDS011;4517;49.020;12.066;2024-03-25T04:00:12;17.70;;;16.40;;
8964;SDS011;4517;49.020;12.066;2024-03-25T04:02:39;16.97;;;15.77;;
8964;SDS011;4517;49.020;12.066;2024-03-25T04:05:05;18.40;;;17.10;;
8964;SDS011;4517;49.020;12.066;2024-03-25T04:07:31;18.60;;;17.10;;
8964;SDS011;4517;49.020;12.066;2024-03-25T04:09:58;18.10;;;16.37;;
8964;SDS011;4517;49.020;12.066;2024-03-25T04:12:24;18.00;;;16.70;;
8964;SDS011;4517;49.020;12.066;2024-03-25T04:14:51;18.23;;;16.87;;
8964;SDS011;4517;49.020;12.066;2024-03-25T04:17:20;20.20;;;18.37;;
8964;SDS011;4517;49.020;12.066;2024-03-25T04:19:46;18.37;;;16.97;;
8964;SDS011;4517;49.020;12.066;2024-03-25T04:22:12;18.73;;;17.33;;
8964;SDS011;4517;49.020;12.066;2024-03-25T04:24:38;18.53;;;16.87;;
8964;SDS011;4517;49.020;12.066;2024-03-25T04:27:04;19.20;;;17.57;;
8964;SDS011;4517;49.020;12.066;2024-03-25T04:29:30;18.43;;;17.17;;
8964;SDS011;4517;49.020;12.066;2024-03-25T04:31:56;18.53;;;17.20;;
8964;SDS011;4517;49.020;12.066;2024-03-25T04:34:22;17.70;;;16.40;;
8964;SDS011;4517;49.020;12.066;2024-03-25T04:36:48;17.47;;;15.93;;
8964;SDS011;4517;49.020;12.066;2024-03-25T04:39:14;18.70;;;17.10;;
8964;SDS011;4517;49.020;12.066;2024-03-25T04:41:40;17.30;;;16.20;;
8964;SDS011;4517;49.020;12.066;2024-03-25T04:44:06;18.67;;;17.13;;
8964;SDS011;4517;49.020;12.066;2024-03-25T04:46:32;18.47;;;17.00;;
8964;SDS011;4517;49.020;12.066;2024-03-25T04:48:58;17.73;;;16.53;;
8964;SDS011;4517;49.020;12.066;2024-03-25T04:51:24;16.97;;;15.80;;
8964;SDS011;4517;49.020;12.066;2024-03-25T04:53:51;16.30;;;15.27;;
8964;SDS011;4517;49.020;12.066;2024-03-25T04:56:18;18.23;;;16.83;;
8964;SDS011;4517;49.020;12.066;2024-03-25T04:58:44;19.80;;;17.90;;
8964;SDS011;4517;49.020;12.066;2024-03-25T05:01:10;19.80;;;18.20;;
8964;SDS011;4517;49.020;12.066;2024-03-25T05:03:35;17.20;;;16.03;;
8964;SDS011;4517;49.020;12.066;2024-03-25T05:06:01;18.70;;;17.10;;
8964;SDS011;4517;49.020;12.066;2024-03-25T05:08:30;19.10;;;17.60;;
8964;SDS011;4517;49.020;12.066;2024-03-25T05:10:56;17.73;;;16.37;;
8964;SDS011;4517;49.020;12.066;2024-03-25T05:13:22;19.63;;;18.23;;
8964;SDS011;4517;49.020;12.066;2024-03-25T05:15:51;19.73;;;18.13;;
8964;SDS011;4517;49.020;12.066;2024-03-25T05:18:17;20.77;;;19.03;;
8964;SDS011;4517;49.020;12.066;2024-03-25T05:20:44;17.40;;;16.30;;
8964;SDS011;4517;49.020;12.066;2024-03-25T05:23:10;18.17;;;16.83;;
8964;SDS011;4517;49.020;12.066;2024-03-25T05:25:36;20.03;;;18.13;;
8964;SDS011;4517;49.020;12.066;2024-03-25T05:28:03;19.67;;;17.50;;
8964;SDS011;4517;49.020;12.066;2024-03-25T05:30:29;18.17;;;16.77;;
8964;SDS011;4517;49.020;12.066;2024-03-25T05:32:55;18.37;;;16.67;;
8964;SDS011;4517;49.020;12.066;2024-03-25T05:35:21;18.77;;;16.80;;
8964;SDS011;4517;49.020;12.066;2024-03-25T05:37:47;16.63;;;15.63;;
8964;SDS011;4517;49.020;12.066;2024-03-25T05:40:13;19.03;;;17.40;;
8964;SDS011;4517;49.020;12.066;2024-03-25T05:42:40;17.60;;;16.20;;
8964;SDS011;4517;49.020;12.066;2024-03-25T05:45:06;18.73;;;17.33;;
8964;SDS011;4517;49.020;12.066;2024-03-25T05:47:34;17.67;;;16.37;;
8964;SDS011;4517;49.020;12.066;2024-03-25T05:50:00;17.87;;;16.47;;
8964;SDS011;4517;49.020;12.066;2024-03-25T05:52:28;18.40;;;16.90;;
8964;SDS011;4517;49.020;12.066;2024-03-25T05:54:54;17.40;;;16.00;;
8964;SDS011;4517;49.020;12.066;2024-03-25T05:57:20;17.50;;;16.00;;
8964;SDS011;4517;49.020;12.066;2024-03-25T05:59:46;16.87;;;15.67;;
8964;SDS011;4517;49.020;12.066;2024-03-25T06:02:12;18.97;;;17.37;;
8964;SDS011;4517;49.020;12.066;2024-03-25T06:04:38;17.47;;;16.17;;
8964;SDS011;4517;49.020;12.066;2024-03-25T06:07:04;17.93;;;16.63;;
8964;SDS011;4517;49.020;12.066;2024-03-25T06:09:30;16.53;;;15.13;;
8964;SDS011;4517;49.020;12.066;2024-03-25T06:11:56;16.97;;;15.47;;
8964;SDS011;4517;49.020;12.066;2024-03-25T06:14:22;16.80;;;15.43;;
8964;SDS011;4517;49.020;12.066;2024-03-25T06:16:48;17.77;;;16.27;;
8964;SDS011;4517;49.020;12.066;2024-03-25T06:19:14;16.07;;;14.77;;
8964;SDS011;4517;49.020;12.066;2024-03-25T06:21:40;16.57;;;15.27;;
8964;SDS011;4517;49.020;12.066;2024-03-25T06:24:07;16.00;;;14.83;;
8964;SDS011;4517;49.020;12.066;2024-03-25T06:26:33;16.80;;;15.40;;
8964;SDS011;4517;49.020;12.066;2024-03-25T06:28:59;16.60;;;15.30;;
8964;SDS011;4517;49.020;12.066;2024-03-25T06:31:25;17.80;;;16.23;;
8964;SDS011;4517;49.020;12.066;2024-03-25T06:34:10;18.13;;;16.73;;
8964;SDS011;4517;49.020;12.066;2024-03-25T06:36:48;18.50;;;17.00;;
8964;SDS011;4517;49.020;12.066;2024-03-25T06:39:14;16.90;;;15.20;;
8964;SDS011;4517;49.020;12.066;2024-03-25T06:41:40;18.63;;;16.80;;
8964;SDS011;4517;49.020;12.066;2024-03-25T06:44:06;16.67;;;15.47;;
8964;SDS011;4517;49.020;12.066;2024-03-25T06:46:33;17.33;;;15.73;;
8964;SDS011;4517;49.020;12.066;2024-03-25T06:48:59;16.73;;;15.23;;
8964;SDS011;4517;49.020;12.066;2024-03-25T06:51:25;19.23;;;15.90;;
8964;SDS011;4517;49.020;12.066;2024-03-25T06:53:51;17.20;;;15.80;;
8964;SDS011;4517;49.020;12.066;2024-03-25T06:56:17;16.37;;;15.27;;
8964;SDS011;4517;49.020;12.066;2024-03-25T06:58:43;16.90;;;15.70;;
8964;SDS011;4517;49.020;12.066;2024-03-25T07:01:09;16.43;;;15.13;;
8964;SDS011;4517;49.020;12.066;2024-03-25T07:03:37;24.40;;;22.80;;
8964;SDS011;4517;49.020;12.066;2024-03-25T07:06:03;22.13;;;20.00;;
8964;SDS011;4517;49.020;12.066;2024-03-25T07:08:30;18.40;;;16.10;;
8964;SDS011;4517;49.020;12.066;2024-03-25T07:10:56;15.33;;;13.93;;
8964;SDS011;4517;49.020;12.066;2024-03-25T07:13:22;15.60;;;14.60;;
8964;SDS011;4517;49.020;12.066;2024-03-25T07:15:48;18.47;;;17.07;;
8964;SDS011;4517;49.020;12.066;2024-03-25T07:18:14;17.83;;;16.33;;
8964;SDS011;4517;49.020;12.066;2024-03-25T07:20:40;16.00;;;14.70;;
8964;SDS011;4517;49.020;12.066;2024-03-25T07:23:07;16.77;;;15.47;;
8964;SDS011;4517;49.020;12.066;2024-03-25T07:25:32;16.60;;;14.83;;
8964;SDS011;4517;49.020;12.066;2024-03-25T07:27:59;16.10;;;14.80;;
8964;SDS011;4517;49.020;12.066;2024-03-25T07:30:25;16.07;;;14.97;;
8964;SDS011;4517;49.020;12.066;2024-03-25T07:32:57;17.80;;;15.77;;
8964;SDS011;4517;49.020;12.066;2024-03-25T07:35:23;15.43;;;14.30;;
8964;SDS011;4517;49.020;12.066;2024-03-25T07:37:49;16.43;;;14.87;;
8964;SDS011;4517;49.020;12.066;2024-03-25T07:40:18;17.27;;;15.97;;
8964;SDS011;4517;49.020;12.066;2024-03-25T07:42:44;17.23;;;15.80;;
8964;SDS011;4517;49.020;12.066;2024-03-25T07:45:10;16.03;;;14.73;;
8964;SDS011;4517;49.020;12.066;2024-03-25T07:47:36;16.50;;;15.30;;
8964;SDS011;4517;49.020;12.066;2024-03-25T07:50:03;18.07;;;16.47;;
8964;SDS011;4517;49.020;12.066;2024-03-25T07:52:30;17.00;;;15.70;;
8964;SDS011;4517;49.020;12.066;2024-03-25T07:54:56;17.20;;;16.00;;
8964;SDS011;4517;49.020;12.066;2024-03-25T07:57:22;14.93;;;13.80;;
8964;SDS011;4517;49.020;12.066;2024-03-25T07:59:48;15.40;;;14.20;;
8964;SDS011;4517;49.020;12.066;2024-03-25T08:02:14;16.27;;;14.77;;
8964;SDS011;4517;49.020;12.066;2024-03-25T08:04:40;15.80;;;14.80;;
8964;SDS011;4517;49.020;12.066;2024-03-25T08:07:07;14.57;;;13.60;;
8964;SDS011;4517;49.020;12.066;2024-03-25T08:09:33;16.50;;;15.00;;
8964;SDS011;4517;49.020;12.066;2024-03-25T08:11:58;14.40;;;13.60;;
8964;SDS011;4517;49.020;12.066;2024-03-25T08:14:25;15.23;;;14.17;;
8964;SDS011;4517;49.020;12.066;2024-03-25T08:16:51;16.57;;;15.17;;
8964;SDS011;4517;49.020;12.066;2024-03-25T08:19:17;16.73;;;15.33;;
8964;SDS011;4517;49.020;12.066;2024-03-25T08:21:43;15.83;;;14.63;;
8964;SDS011;4517;49.020;12.066;2024-03-25T08:24:09;14.90;;;14.00;;
8964;SDS011;4517;49.020;12.066;2024-03-25T08:26:35;15.40;;;14.50;;
8964;SDS011;4517;49.020;12.066;2024-03-25T08:29:00;18.23;;;16.30;;
8964;SDS011;4517;49.020;12.066;2024-03-25T08:31:26;16.93;;;15.57;;
8964;SDS011;4517;49.020;12.066;2024-03-25T08:33:52;20.43;;;18.90;;
8964;SDS011;4517;49.020;12.066;2024-03-25T08:36:18;16.10;;;14.60;;
8964;SDS011;4517;49.020;12.066;2024-03-25T08:38:44;15.37;;;14.30;;
8964;SDS011;4517;49.020;12.066;2024-03-25T08:41:10;15.23;;;14.07;;
8964;SDS011;4517;49.020;12.066;2024-03-25T08:43:36;16.67;;;15.50;;
8964;SDS011;4517;49.020;12.066;2024-03-25T08:46:02;15.67;;;14.67;;
8964;SDS011;4517;49.020;12.066;2024-03-25T08:48:28;16.30;;;15.30;;
8964;SDS011;4517;49.020;12.066;2024-03-25T08:50:54;16.83;;;15.47;;
8964;SDS011;4517;49.020;12.066;2024-03-25T08:53:20;18.03;;;16.90;;
8964;SDS011;4517;49.020;12.066;2024-03-25T08:55:46;21.33;;;20.03;;
8964;SDS011;4517;49.020;12.066;2024-03-25T08:58:13;15.10;;;14.00;;
8964;SDS011;4517;49.020;12.066;2024-03-25T09:00:39;16.57;;;15.47;;
8964;SDS011;4517;49.020;12.066;2024-03-25T09:03:04;16.03;;;14.93;;
8964;SDS011;4517;49.020;12.066;2024-03-25T09:05:30;15.53;;;14.53;;
8964;SDS011;4517;49.020;12.066;2024-03-25T09:07:56;15.90;;;14.90;;
8964;SDS011;4517;49.020;12.066;2024-03-25T09:10:23;17.63;;;13.60;;
8964;SDS011;4517;49.020;12.066;2024-03-25T09:13:08;15.40;;;14.40;;
8964;SDS011;4517;49.020;12.066;2024-03-25T09:15:34;21.67;;;20.13;;
8964;SDS011;4517;49.020;12.066;2024-03-25T09:18:00;29.07;;;27.43;;
8964;SDS011;4517;49.020;12.066;2024-03-25T09:20:26;15.13;;;14.07;;
8964;SDS011;4517;49.020;12.066;2024-03-25T09:22:52;14.77;;;13.67;;
8964;SDS011;4517;49.020;12.066;2024-03-25T09:25:18;14.23;;;13.20;;
8964;SDS011;4517;49.020;12.066;2024-03-25T09:27:47;14.63;;;13.73;;
8964;SDS011;4517;49.020;12.066;2024-03-25T09:30:14;14.40;;;13.53;;
8964;SDS011;4517;49.020;12.066;2024-03-25T09:32:40;13.77;;;13.07;;
8964;SDS011;4517;49.020;12.066;2024-03-25T09:35:07;13.67;;;12.70;;
8964;SDS011;4517;49.020;12.066;2024-03-25T09:37:33;19.13;;;17.93;;
8964;SDS011;4517;49.020;12.066;2024-03-25T09:39:59;14.03;;;13.20;;
8964;SDS011;4517;49.020;12.066;2024-03-25T09:42:26;14.33;;;13.50;;
8964;SDS011;4517;49.020;12.066;2024-03-25T09:44:55;14.27;;;13.47;;
8964;SDS011;4517;49.020;12.066;2024-03-25T09:47:22;14.90;;;13.70;;
8964;SDS011;4517;49.020;12.066;2024-03-25T09:49:48;15.47;;;14.33;;
8964;SDS011;4517;49.020;12.066;2024-03-25T09:52:14;14.93;;;14.03;;
8964;SDS011;4517;49.020;12.066;2024-03-25T09:54:41;14.13;;;13.23;;
8964;SDS011;4517;49.020;12.066;2024-03-25T09:57:07;15.70;;;14.80;;
8964;SDS011;4517;49.020;12.066;2024-03-25T09:59:34;15.50;;;14.50;;
8964;SDS011;4517;49.020;12.066;2024-03-25T10:02:00;16.33;;;15.23;;
8964;SDS011;4517;49.020;12.066;2024-03-25T10:04:27;14.60;;;13.70;;
8964;SDS011;4517;49.020;12.066;2024-03-25T10:06:53;14.70;;;13.90;;
8964;SDS011;4517;49.020;12.066;2024-03-25T10:09:19;14.03;;;13.23;;
8964;SDS011;4517;49.020;12.066;2024-03-25T10:11:49;14.83;;;13.50;;
8964;SDS011;4517;49.020;12.066;2024-03-25T10:14:15;14.10;;;13.20;;
8964;SDS011;4517;49.020;12.066;2024-03-25T10:16:42;13.60;;;12.80;;
8964;SDS011;4517;49.020;12.066;2024-03-25T10:19:08;14.40;;;13.10;;
8964;SDS011;4517;49.020;12.066;2024-03-25T10:21:34;15.10;;;14.10;;
8964;SDS011;4517;49.020;12.066;2024-03-25T10:24:00;19.50;;;18.20;;
8964;SDS011;4517;49.020;12.066;2024-03-25T10:26:30;13.60;;;12.53;;
8964;SDS011;4517;49.020;12.066;2024-03-25T10:29:03;34.30;;;21.50;;
8964;SDS011;4517;49.020;12.066;2024-03-25T10:31:29;14.97;;;13.97;;
8964;SDS011;4517;49.020;12.066;2024-03-25T10:33:55;19.10;;;15.37;;
8964;SDS011;4517;49.020;12.066;2024-03-25T10:36:22;15.07;;;13.87;;
8964;SDS011;4517;49.020;12.066;2024-03-25T10:38:49;16.13;;;15.17;;
8964;SDS011;4517;49.020;12.066;2024-03-25T10:41:17;14.57;;;13.37;;
8964;SDS011;4517;49.020;12.066;2024-03-25T10:43:45;14.30;;;13.33;;
8964;SDS011;4517;49.020;12.066;2024-03-25T10:46:12;14.77;;;13.77;;
8964;SDS011;4517;49.020;12.066;2024-03-25T10:48:40;15.30;;;14.20;;
8964;SDS011;4517;49.020;12.066;2024-03-25T10:51:06;13.33;;;12.63;;
8964;SDS011;4517;49.020;12.066;2024-03-25T10:53:35;17.33;;;15.87;;
8964;SDS011;4517;49.020;12.066;2024-03-25T10:56:02;15.00;;;13.63;;
8964;SDS011;4517;49.020;12.066;2024-03-25T10:58:30;15.43;;;14.43;;
8964;SDS011;4517;49.020;12.066;2024-03-25T11:00:57;15.13;;;14.13;;
8964;SDS011;4517;49.020;12.066;2024-03-25T11:03:23;15.80;;;14.70;;
8964;SDS011;4517;49.020;12.066;2024-03-25T11:05:49;14.70;;;13.70;;
8964;SDS011;4517;49.020;12.066;2024-03-25T11:08:16;15.47;;;14.47;;
8964;SDS011;4517;49.020;12.066;2024-03-25T11:13:14;14.27;;;13.07;;
8964;SDS011;4517;49.020;12.066;2024-03-25T11:15:40;17.00;;;15.80;;
8964;SDS011;4517;49.020;12.066;2024-03-25T11:18:18;17.20;;;16.10;;
8964;SDS011;4517;49.020;12.066;2024-03-25T11:20:59;16.10;;;15.00;;
8964;SDS011;4517;49.020;12.066;2024-03-25T11:23:25;15.47;;;14.47;;
8964;SDS011;4517;49.020;12.066;2024-03-25T11:25:54;14.40;;;13.30;;
8964;SDS011;4517;49.020;12.066;2024-03-25T11:28:26;15.80;;;14.60;;
8964;SDS011;4517;49.020;12.066;2024-03-25T11:30:52;16.87;;;15.20;;
8964;SDS011;4517;49.020;12.066;2024-03-25T11:33:18;16.17;;;15.20;;
8964;SDS011;4517;49.020;12.066;2024-03-25T11:35:47;15.00;;;13.87;;
8964;SDS011;4517;49.020;12.066;2024-03-25T11:38:13;15.00;;;14.00;;
8964;SDS011;4517;49.020;12.066;2024-03-25T11:40:40;15.07;;;14.03;;
8964;SDS011;4517;49.020;12.066;2024-03-25T11:43:07;15.73;;;14.53;;
8964;SDS011;4517;49.020;12.066;2024-03-25T11:45:33;14.20;;;13.40;;
8964;SDS011;4517;49.020;12.066;2024-03-25T11:47:59;16.63;;;15.63;;
8964;SDS011;4517;49.020;12.066;2024-03-25T11:50:24;17.47;;;16.20;;
8964;SDS011;4517;49.020;12.066;2024-03-25T11:52:50;15.93;;;14.43;;
8964;SDS011;4517;49.020;12.066;2024-03-25T11:55:17;14.97;;;13.97;;
8964;SDS011;4517;49.020;12.066;2024-03-25T11:57:43;15.30;;;14.10;;
8964;SDS011;4517;49.020;12.066;2024-03-25T12:00:09;14.63;;;13.73;;
8964;SDS011;4517;49.020;12.066;2024-03-25T12:02:38;15.70;;;14.50;;
8964;SDS011;4517;49.020;12.066;2024-03-25T12:05:07;14.60;;;13.80;;
8964;SDS011;4517;49.020;12.066;2024-03-25T12:07:34;16.20;;;15.00;;
8964;SDS011;4517;49.020;12.066;2024-03-25T12:10:00;15.60;;;14.30;;
8964;SDS011;4517;49.020;12.066;2024-03-25T12:12:45;16.20;;;14.90;;
8964;SDS011;4517;49.020;12.066;2024-03-25T12:15:11;15.90;;;14.50;;
8964;SDS011;4517;49.020;12.066;2024-03-25T12:17:37;17.00;;;16.00;;
8964;SDS011;4517;49.020;12.066;2024-03-25T12:20:06;15.97;;;15.07;;
8964;SDS011;4517;49.020;12.066;2024-03-25T12:22:33;15.60;;;14.50;;
8964;SDS011;4517;49.020;12.066;2024-03-25T12:25:00;16.60;;;15.20;;
8964;SDS011;4517;49.020;12.066;2024-03-25T12:27:27;16.00;;;14.80;;
8964;SDS011;4517;49.020;12.066;2024-03-25T12:30:12;14.50;;;13.60;;
8964;SDS011;4517;49.020;12.066;2024-03-25T12:32:41;13.73;;;12.93;;
8964;SDS011;4517;49.020;12.066;2024-03-25T12:35:08;17.03;;;15.43;;
8964;SDS011;4517;49.020;12.066;2024-03-25T12:37:36;16.10;;;14.90;;
8964;SDS011;4517;49.020;12.066;2024-03-25T12:40:02;16.40;;;15.20;;
8964;SDS011;4517;49.020;12.066;2024-03-25T12:42:30;16.63;;;15.53;;
8964;SDS011;4517;49.020;12.066;2024-03-25T12:44:56;15.73;;;14.73;;
8964;SDS011;4517;49.020;12.066;2024-03-25T12:47:22;15.63;;;14.10;;
8964;SDS011;4517;49.020;12.066;2024-03-25T12:49:48;15.93;;;14.70;;
8964;SDS011;4517;49.020;12.066;2024-03-25T12:52:14;15.77;;;14.60;;
8964;SDS011;4517;49.020;12.066;2024-03-25T12:54:40;19.33;;;17.90;;
8964;SDS011;4517;49.020;12.066;2024-03-25T12:57:09;16.60;;;15.50;;
8964;SDS011;4517;49.020;12.066;2024-03-25T12:59:35;16.37;;;15.37;;
8964;SDS011;4517;49.020;12.066;2024-03-25T13:02:01;16.70;;;15.40;;
8964;SDS011;4517;49.020;12.066;2024-03-25T13:04:27;15.37;;;14.13;;
8964;SDS011;4517;49.020;12.066;2024-03-25T13:06:53;16.70;;;15.40;;
8964;SDS011;4517;49.020;12.066;2024-03-25T13:09:19;16.50;;;15.47;;
8964;SDS011;4517;49.020;12.066;2024-03-25T13:11:45;15.63;;;14.60;;
8964;SDS011;4517;49.020;12.066;2024-03-25T13:14:12;15.97;;;14.47;;
8964;SDS011;4517;49.020;12.066;2024-03-25T13:16:38;16.77;;;15.67;;
8964;SDS011;4517;49.020;12.066;2024-03-25T13:19:04;16.13;;;14.80;;
8964;SDS011;4517;49.020;12.066;2024-03-25T13:21:30;16.60;;;15.40;;
8964;SDS011;4517;49.020;12.066;2024-03-25T13:23:56;17.70;;;16.40;;
8964;SDS011;4517;49.020;12.066;2024-03-25T13:26:22;17.13;;;15.80;;
8964;SDS011;4517;49.020;12.066;2024-03-25T13:28:48;15.70;;;14.53;;
8964;SDS011;4517;49.020;12.066;2024-03-25T13:31:14;16.50;;;15.37;;
8964;SDS011;4517;49.020;12.066;2024-03-25T13:33:41;16.07;;;15.00;;
8964;SDS011;4517;49.020;12.066;2024-03-25T13:36:07;15.70;;;14.57;;
8964;SDS011;4517;49.020;12.066;2024-03-25T13:38:33;15.80;;;14.77;;
8964;SDS011;4517;49.020;12.066;2024-03-25T13:41:00;16.40;;;15.30;;
8964;SDS011;4517;49.020;12.066;2024-03-25T13:43:26;15.90;;;14.60;;
8964;SDS011;4517;49.020;12.066;2024-03-25T13:45:52;14.83;;;13.93;;
8964;SDS011;4517;49.020;12.066;2024-03-25T13:48:18;16.10;;;14.90;;
8964;SDS011;4517;49.020;12.066;2024-03-25T13:50:44;15.30;;;14.30;;
8964;SDS011;4517;49.020;12.066;2024-03-25T13:53:10;15.00;;;14.10;;
8964;SDS011;4517;49.020;12.066;2024-03-25T13:55:36;15.87;;;14.77;;
8964;SDS011;4517;49.020;12.066;2024-03-25T13:58:01;14.97;;;14.07;;
8964;SDS011;4517;49.020;12.066;2024-03-25T14:00:28;14.70;;;13.70;;
8964;SDS011;4517;49.020;12.066;2024-03-25T14:02:54;15.60;;;14.50;;
8964;SDS011;4517;49.020;12.066;2024-03-25T14:05:21;15.50;;;14.30;;
8964;SDS011;4517;49.020;12.066;2024-03-25T14:07:48;16.03;;;15.00;;
8964;SDS011;4517;49.020;12.066;2024-03-25T14:10:14;16.23;;;15.07;;
8964;SDS011;4517;49.020;12.066;2024-03-25T14:12:40;15.40;;;14.30;;
8964;SDS011;4517;49.020;12.066;2024-03-25T14:15:06;15.97;;;14.87;;
8964;SDS011;4517;49.020;12.066;2024-03-25T14:17:32;17.20;;;15.90;;
8964;SDS011;4517;49.020;12.066;2024-03-25T14:19:58;16.27;;;15.20;;
8964;SDS011;4517;49.020;12.066;2024-03-25T14:22:24;16.90;;;15.80;;
8964;SDS011;4517;49.020;12.066;2024-03-25T14:24:50;15.10;;;14.20;;
8964;SDS011;4517;49.020;12.066;2024-03-25T14:27:21;15.03;;;14.03;;
8964;SDS011;4517;49.020;12.066;2024-03-25T14:29:47;17.03;;;15.90;;
8964;SDS011;4517;49.020;12.066;2024-03-25T14:32:13;16.90;;;15.90;;